createdAt,value
2022-08-28T00:00:29.199Z,23.20
2022-08-28T00:03:17.476Z,23.09
2022-08-28T00:06:04.901Z,23.01
2022-08-28T00:08:51.917Z,23.02
2022-08-28T00:11:39.684Z,23.05
2022-08-28T00:14:26.931Z,22.97
2022-08-28T00:17:13.902Z,23.03
2022-08-28T00:20:01.214Z,23.03
2022-08-28T00:22:49.719Z,23.02
2022-08-28T00:25:37.191Z,23.02
2022-08-28T00:28:24.690Z,23.09
2022-08-28T00:31:13.370Z,23.10
2022-08-28T00:34:02.811Z,23.09
2022-08-28T00:36:49.889Z,23.10
2022-08-28T00:39:38.517Z,23.09
2022-08-28T00:42:25.684Z,23.04
2022-08-28T00:45:14.768Z,23.04
2022-08-28T00:48:01.835Z,23.03
2022-08-28T00:51:08.225Z,23.09
2022-08-28T00:53:59.043Z,22.87
2022-08-28T00:56:47.742Z,22.97
2022-08-28T00:59:34.839Z,23.03
2022-08-28T01:02:21.870Z,23.07
2022-08-28T01:05:09.796Z,23.07
2022-08-28T01:07:59.003Z,22.94
2022-08-28T01:10:50.449Z,22.86
2022-08-28T01:13:40.160Z,22.90
2022-08-28T01:16:33.164Z,22.90
2022-08-28T01:19:31.246Z,22.77
2022-08-28T01:22:26.902Z,22.78
2022-08-28T01:25:21.295Z,22.86
2022-08-28T01:28:12.475Z,22.81
2022-08-28T01:30:59.819Z,22.87
2022-08-28T01:33:47.588Z,22.81
2022-08-28T01:36:34.731Z,22.70
2022-08-28T01:39:23.960Z,22.87
2022-08-28T01:42:11.237Z,22.78
2022-08-28T01:44:58.295Z,22.71
2022-08-28T01:47:46.399Z,22.75
2022-08-28T01:50:36.924Z,22.72
2022-08-28T01:53:32.685Z,22.80
2022-08-28T01:56:20.157Z,22.78
2022-08-28T01:59:09.962Z,22.81
2022-08-28T02:01:56.887Z,22.83
2022-08-28T02:04:47.905Z,22.90
2022-08-28T02:07:35.576Z,22.82
2022-08-28T02:10:25.588Z,22.83
2022-08-28T02:13:14.723Z,22.86
2022-08-28T02:16:02.354Z,22.81
2022-08-28T02:18:49.396Z,22.66
2022-08-28T02:21:36.399Z,22.75
2022-08-28T02:24:23.838Z,22.71
2022-08-28T02:27:10.862Z,22.80
2022-08-28T02:29:58.971Z,22.83
2022-08-28T02:32:46.421Z,22.78
2022-08-28T02:35:33.472Z,22.92
2022-08-28T02:38:20.923Z,22.81
2022-08-28T02:41:08.755Z,22.76
2022-08-28T02:43:55.910Z,22.62
2022-08-28T02:46:43.286Z,22.52
2022-08-28T02:49:31.385Z,22.53
2022-08-28T02:52:24.715Z,22.36
2022-08-28T02:55:13.592Z,22.38
2022-08-28T02:58:00.991Z,22.38
2022-08-28T03:00:48.968Z,22.40
2022-08-28T03:03:36.151Z,22.46
2022-08-28T03:06:24.933Z,22.51
2022-08-28T03:09:11.968Z,22.47
2022-08-28T03:11:58.962Z,22.49
2022-08-28T03:14:46.013Z,22.45
2022-08-28T03:17:32.989Z,22.39
2022-08-28T03:20:20.012Z,22.22
2022-08-28T03:23:26.145Z,22.17
2022-08-28T03:26:17.641Z,22.08
2022-08-28T03:29:04.799Z,21.99
2022-08-28T03:31:51.855Z,22.07
2022-08-28T03:34:38.857Z,22.07
2022-08-28T03:37:26.208Z,22.02
2022-08-28T03:40:14.713Z,22.09
2022-08-28T03:43:01.970Z,21.93
2022-08-28T03:45:53.080Z,22.02
2022-08-28T03:48:41.049Z,21.89
2022-08-28T03:51:34.381Z,21.80
2022-08-28T03:54:21.392Z,21.74
2022-08-28T03:57:08.463Z,21.72
2022-08-28T03:59:55.381Z,21.87
2022-08-28T04:02:43.900Z,21.91
2022-08-28T04:05:30.815Z,22.01
2022-08-28T04:08:20.148Z,21.98
2022-08-28T04:11:07.269Z,21.94
2022-08-28T04:13:54.619Z,21.88
2022-08-28T04:16:41.805Z,21.86
2022-08-28T04:19:29.988Z,21.85
2022-08-28T04:22:16.984Z,21.80
2022-08-28T04:25:06.308Z,21.88
2022-08-28T04:27:53.586Z,21.88
2022-08-28T04:30:41.586Z,21.72
2022-08-28T04:33:29.158Z,21.66
2022-08-28T04:36:18.840Z,21.64
2022-08-28T04:39:08.683Z,21.49
2022-08-28T04:41:56.121Z,21.53
2022-08-28T04:44:43.247Z,21.54
2022-08-28T04:47:31.159Z,21.60
2022-08-28T04:50:18.170Z,21.51
2022-08-28T04:53:05.111Z,21.42
2022-08-28T04:55:54.390Z,21.58
2022-08-28T04:58:44.546Z,21.66
2022-08-28T05:01:31.752Z,21.73
2022-08-28T05:04:19.897Z,21.70
2022-08-28T05:07:06.941Z,21.81
2022-08-28T05:09:54.924Z,21.76
2022-08-28T05:12:42.147Z,21.72
2022-08-28T05:15:29.138Z,21.80
2022-08-28T05:18:18.307Z,21.79
2022-08-28T05:21:05.257Z,21.95
2022-08-28T05:23:56.585Z,21.94
2022-08-28T05:26:43.622Z,21.73
2022-08-28T05:29:35.111Z,21.82
2022-08-28T05:32:22.126Z,21.77
2022-08-28T05:35:09.198Z,21.78
2022-08-28T05:37:56.243Z,21.74
2022-08-28T05:40:49.575Z,21.73
2022-08-28T05:43:36.852Z,21.78
2022-08-28T05:46:23.980Z,21.83
2022-08-28T05:49:12.518Z,21.79
2022-08-28T05:51:59.670Z,21.72
2022-08-28T05:54:46.626Z,21.74
2022-08-28T05:57:33.879Z,21.77
2022-08-28T06:00:21.098Z,21.72
2022-08-28T06:03:08.759Z,21.90
2022-08-28T06:05:56.155Z,21.64
2022-08-28T06:08:58.039Z,21.81
2022-08-28T06:11:46.545Z,21.58
2022-08-28T06:14:33.712Z,21.68
2022-08-28T06:17:23.771Z,21.57
2022-08-28T06:20:11.294Z,21.76
2022-08-28T06:22:58.994Z,21.97
2022-08-28T06:25:49.363Z,22.13
2022-08-28T06:28:36.367Z,22.40
2022-08-28T06:31:26.553Z,22.28
2022-08-28T06:34:15.207Z,22.38
2022-08-28T06:37:02.201Z,22.33
2022-08-28T06:39:49.280Z,22.37
2022-08-28T06:42:36.539Z,22.12
2022-08-28T06:45:23.491Z,22.06
2022-08-28T06:48:12.556Z,22.18
2022-08-28T06:50:59.974Z,22.17
2022-08-28T06:53:47.091Z,22.21
2022-08-28T06:56:34.658Z,22.39
2022-08-28T06:59:21.677Z,22.33
2022-08-28T07:02:09.604Z,22.10
2022-08-28T07:04:56.852Z,22.13
2022-08-28T07:07:43.812Z,22.29
2022-08-28T07:10:31.412Z,22.30
2022-08-28T07:13:18.685Z,22.47
2022-08-28T07:16:07.997Z,22.46
2022-08-28T07:18:56.194Z,22.58
2022-08-28T07:21:45.694Z,22.58
2022-08-28T07:24:32.672Z,22.49
2022-08-28T07:27:20.974Z,22.33
2022-08-28T07:30:10.295Z,22.55
2022-08-28T07:32:57.356Z,22.62
2022-08-28T07:35:44.725Z,22.48
2022-08-28T07:38:31.669Z,22.45
2022-08-28T07:41:25.787Z,22.65
2022-08-28T07:44:33.163Z,22.73
2022-08-28T07:47:20.405Z,22.94
2022-08-28T07:50:07.636Z,22.86
2022-08-28T07:52:54.703Z,23.00
2022-08-28T07:55:41.704Z,22.98
2022-08-28T07:58:28.895Z,22.93
2022-08-28T08:01:17.529Z,22.89
2022-08-28T08:04:07.568Z,22.80
2022-08-28T08:06:57.802Z,22.82
2022-08-28T08:09:46.607Z,22.90
2022-08-28T08:12:34.775Z,22.98
2022-08-28T08:15:21.977Z,23.03
2022-08-28T08:18:09.078Z,23.04
2022-08-28T08:20:56.294Z,22.95
2022-08-28T08:23:43.424Z,22.94
2022-08-28T08:26:30.421Z,22.89
2022-08-28T08:29:17.542Z,23.06
2022-08-28T08:32:10.802Z,23.26
2022-08-28T08:34:57.834Z,23.40
2022-08-28T08:37:44.868Z,23.43
2022-08-28T08:40:32.169Z,23.53
2022-08-28T08:43:21.417Z,23.47
2022-08-28T08:46:09.736Z,23.68
2022-08-28T08:48:59.858Z,24.01
2022-08-28T08:51:54.050Z,24.07
2022-08-28T08:54:42.918Z,24.10
2022-08-28T08:57:31.779Z,24.14
2022-08-28T09:00:20.173Z,24.20
2022-08-28T09:03:14.259Z,24.17
2022-08-28T09:06:05.546Z,24.37
2022-08-28T09:08:59.753Z,24.24
2022-08-28T09:11:57.957Z,24.23
2022-08-28T09:14:57.593Z,24.35
2022-08-28T09:18:06.771Z,24.35
2022-08-28T09:20:56.439Z,24.40
2022-08-28T09:23:43.510Z,24.25
2022-08-28T09:26:34.329Z,24.20
2022-08-28T09:29:31.601Z,24.37
2022-08-28T09:32:25.222Z,24.42
2022-08-28T09:35:27.309Z,24.65
2022-08-28T09:38:22.874Z,24.70
2022-08-28T09:41:33.212Z,24.83
2022-08-28T09:44:20.217Z,24.94
2022-08-28T09:47:07.222Z,24.79
2022-08-28T09:49:54.267Z,25.07
2022-08-28T09:52:41.545Z,25.08
2022-08-28T09:55:35.738Z,25.00
2022-08-28T09:58:24.587Z,24.78
2022-08-28T10:01:20.245Z,24.99
2022-08-28T10:04:19.534Z,24.99
2022-08-28T10:07:15.354Z,25.06
2022-08-28T10:10:14.352Z,25.20
2022-08-28T10:13:52.264Z,25.27
2022-08-28T10:17:16.666Z,25.42
2022-08-28T10:20:16.742Z,25.67
2022-08-28T10:23:08.111Z,25.53
2022-08-28T10:26:10.115Z,25.61
2022-08-28T10:29:11.343Z,25.81
2022-08-28T10:32:34.021Z,25.95
2022-08-28T10:35:33.594Z,26.08
2022-08-28T10:38:31.020Z,25.88
2022-08-28T10:41:38.909Z,26.10
2022-08-28T10:44:34.270Z,26.14
2022-08-28T10:47:23.901Z,26.01
2022-08-28T10:50:22.015Z,26.35
2022-08-28T10:53:18.376Z,26.43
2022-08-28T10:56:23.263Z,26.64
2022-08-28T10:59:10.280Z,26.68
2022-08-28T11:01:58.699Z,26.49
2022-08-28T11:04:46.827Z,26.62
2022-08-28T11:07:38.778Z,26.33
2022-08-28T11:10:38.883Z,26.34
2022-08-28T11:13:43.081Z,26.56
2022-08-28T11:16:30.370Z,26.58
2022-08-28T11:19:34.203Z,26.87
2022-08-28T11:22:25.036Z,27.04
2022-08-28T11:25:26.474Z,26.94
2022-08-28T11:28:44.323Z,27.06
2022-08-28T11:31:35.562Z,27.12
2022-08-28T11:34:58.308Z,27.09
2022-08-28T11:37:50.488Z,27.18
2022-08-28T11:40:54.974Z,27.28
2022-08-28T11:43:44.784Z,27.29
2022-08-28T11:46:33.874Z,27.27
2022-08-28T11:49:24.607Z,27.26
2022-08-28T11:52:23.397Z,27.36
2022-08-28T11:55:41.057Z,27.52
2022-08-28T11:59:07.959Z,27.53
2022-08-28T12:02:17.518Z,27.57
2022-08-28T12:05:06.970Z,27.63
2022-08-28T12:07:54.050Z,27.87
2022-08-28T12:10:56.563Z,27.99
2022-08-28T12:13:48.894Z,28.13
2022-08-28T12:17:03.980Z,28.09
2022-08-28T12:19:58.065Z,28.19
2022-08-28T12:22:55.157Z,28.31
2022-08-28T12:25:44.183Z,28.40
2022-08-28T12:28:43.934Z,28.49
2022-08-28T12:32:14.575Z,28.46
2022-08-28T12:35:02.470Z,28.39
2022-08-28T12:37:55.944Z,28.47
2022-08-28T12:40:53.372Z,28.60
2022-08-28T12:43:46.534Z,28.50
2022-08-28T12:46:38.209Z,28.66
2022-08-28T12:49:30.678Z,28.56
2022-08-28T12:52:24.638Z,28.31
2022-08-28T12:55:11.884Z,28.66
2022-08-28T12:57:58.928Z,28.76
2022-08-28T13:00:55.785Z,28.77
2022-08-28T13:03:49.240Z,28.76
2022-08-28T13:06:38.846Z,28.88
2022-08-28T13:09:28.485Z,28.89
2022-08-28T13:12:54.993Z,28.72
2022-08-28T13:16:03.638Z,28.58
2022-08-28T13:19:10.808Z,28.72
2022-08-28T13:22:02.003Z,28.79
2022-08-28T13:24:48.972Z,28.98
2022-08-28T13:27:36.276Z,29.19
2022-08-28T13:30:34.396Z,29.13
2022-08-28T13:33:23.079Z,29.11
2022-08-28T13:36:21.787Z,29.14
2022-08-28T13:39:09.901Z,29.25
2022-08-28T13:41:59.954Z,29.23
2022-08-28T13:44:50.809Z,29.45
2022-08-28T13:47:37.919Z,29.47
2022-08-28T13:50:24.887Z,29.34
2022-08-28T13:53:12.197Z,29.35
2022-08-28T13:56:00.727Z,29.38
2022-08-28T13:58:47.926Z,29.38
2022-08-28T14:02:03.885Z,29.43
2022-08-28T14:04:51.020Z,29.46
2022-08-28T14:07:38.113Z,29.52
2022-08-28T14:10:25.094Z,29.46
2022-08-28T14:13:12.921Z,29.44
2022-08-28T14:16:03.929Z,29.47
2022-08-28T14:18:52.961Z,29.49
2022-08-28T14:21:40.984Z,29.57
2022-08-28T14:24:28.480Z,29.74
2022-08-28T14:27:15.470Z,29.92
2022-08-28T14:30:02.550Z,29.90
2022-08-28T14:32:49.527Z,29.97
2022-08-28T14:35:40.951Z,29.97
2022-08-28T14:38:27.910Z,29.76
2022-08-28T14:41:15.677Z,29.86
2022-08-28T14:46:52.726Z,30.02
2022-08-28T14:49:44.400Z,29.88
2022-08-28T14:52:31.510Z,29.69
2022-08-28T14:55:18.894Z,29.72
2022-08-28T14:58:06.018Z,29.59
2022-08-28T15:00:53.236Z,29.49
2022-08-28T15:03:40.676Z,29.54
2022-08-28T15:06:28.446Z,29.82
2022-08-28T15:09:15.534Z,30.10
2022-08-28T15:12:02.741Z,30.27
2022-08-28T15:14:54.574Z,30.06
2022-08-28T15:17:44.203Z,29.95
2022-08-28T15:20:31.709Z,29.98
2022-08-28T15:23:18.693Z,30.14
2022-08-28T15:26:05.814Z,30.33
2022-08-28T15:28:55.903Z,30.34
2022-08-28T15:31:46.273Z,30.34
2022-08-28T15:34:33.547Z,30.24
2022-08-28T15:37:20.638Z,30.17
2022-08-28T15:40:27.201Z,30.28
2022-08-28T15:43:14.391Z,30.35
2022-08-28T15:46:09.694Z,30.36
2022-08-28T15:48:58.001Z,30.25
2022-08-28T15:51:45.111Z,30.28
2022-08-28T15:54:32.432Z,30.36
2022-08-28T15:57:19.526Z,30.28
2022-08-28T16:00:10.376Z,30.34
2022-08-28T16:03:00.964Z,30.18
2022-08-28T16:05:47.951Z,30.39
2022-08-28T16:08:34.977Z,30.21
2022-08-28T16:11:23.506Z,30.18
2022-08-28T16:14:12.327Z,30.32
2022-08-28T16:16:59.588Z,30.54
2022-08-28T16:19:53.061Z,30.58
2022-08-28T16:22:40.622Z,30.62
2022-08-28T16:25:28.027Z,30.80
2022-08-28T16:28:15.226Z,30.67
2022-08-28T16:31:07.573Z,30.46
2022-08-28T16:34:07.001Z,30.65
2022-08-28T16:36:57.416Z,30.56
2022-08-28T16:39:44.406Z,30.55
2022-08-28T16:42:32.944Z,30.49
2022-08-28T16:45:20.514Z,30.66
2022-08-28T16:48:07.433Z,30.82
2022-08-28T16:50:54.417Z,30.76
2022-08-28T16:53:42.817Z,30.78
2022-08-28T16:56:29.869Z,30.73
2022-08-28T16:59:19.110Z,30.62
2022-08-28T17:02:06.122Z,30.74
2022-08-28T17:04:55.896Z,30.73
2022-08-28T17:07:43.715Z,30.54
2022-08-28T17:10:31.631Z,30.65
2022-08-28T17:13:18.644Z,30.72
2022-08-28T17:16:06.265Z,30.61
2022-08-28T17:18:53.560Z,30.51
2022-08-28T17:21:59.342Z,30.65
2022-08-28T17:24:46.963Z,30.41
2022-08-28T17:27:36.764Z,30.55
2022-08-28T17:30:24.083Z,30.52
2022-08-28T17:33:11.138Z,30.51
2022-08-28T17:36:00.040Z,30.36
2022-08-28T17:38:47.502Z,30.49
2022-08-28T17:41:35.069Z,30.53
2022-08-28T17:44:22.137Z,30.46
2022-08-28T17:47:09.475Z,30.44
2022-08-28T17:49:56.544Z,30.21
2022-08-28T17:52:43.592Z,30.33
2022-08-28T17:55:31.004Z,30.33
2022-08-28T17:58:17.982Z,30.29
2022-08-28T18:01:05.131Z,30.32
2022-08-28T18:03:55.646Z,30.16
2022-08-28T18:06:43.218Z,29.98
2022-08-28T18:09:30.345Z,29.86
2022-08-28T18:12:17.641Z,29.73
2022-08-28T18:15:06.346Z,29.47
2022-08-28T18:17:53.329Z,29.28
2022-08-28T18:20:41.725Z,29.17
2022-08-28T18:23:29.259Z,29.07
2022-08-28T18:26:17.694Z,28.92
2022-08-28T18:29:04.849Z,28.83
2022-08-28T18:31:51.956Z,28.66
2022-08-28T18:34:39.132Z,28.57
2022-08-28T18:37:26.429Z,28.53
2022-08-28T18:40:13.666Z,28.46
2022-08-28T18:43:00.812Z,28.37
2022-08-28T18:45:48.031Z,28.26
2022-08-28T18:48:36.435Z,28.22
2022-08-28T18:51:23.474Z,28.13
2022-08-28T18:54:13.222Z,28.06
2022-08-28T18:57:04.135Z,28.05
2022-08-28T18:59:51.702Z,27.97
2022-08-28T19:02:41.571Z,27.99
2022-08-28T19:05:29.468Z,27.83
2022-08-28T19:08:16.546Z,27.80
2022-08-28T19:11:07.867Z,27.85
2022-08-28T19:13:54.937Z,27.94
2022-08-28T19:16:41.924Z,27.75
2022-08-28T19:19:29.376Z,27.67
2022-08-28T19:22:17.363Z,27.61
2022-08-28T19:25:06.398Z,27.51
2022-08-28T19:28:02.007Z,27.53
2022-08-28T19:30:49.467Z,27.49
2022-08-28T19:33:36.689Z,27.52
2022-08-28T19:36:27.187Z,27.51
2022-08-28T19:39:14.343Z,27.50
2022-08-28T19:42:01.734Z,27.18
2022-08-28T19:44:51.226Z,26.96
2022-08-28T19:47:47.213Z,27.17
2022-08-28T19:50:34.283Z,27.18
2022-08-28T19:53:21.469Z,27.15
2022-08-28T19:56:09.843Z,27.08
2022-08-28T19:58:59.240Z,27.15
2022-08-28T20:01:46.733Z,26.86
2022-08-28T20:04:33.760Z,26.85
2022-08-28T20:07:20.916Z,26.84
2022-08-28T20:10:08.611Z,26.81
2022-08-28T20:12:56.584Z,26.53
2022-08-28T20:15:46.257Z,26.69
2022-08-28T20:18:33.740Z,26.51
2022-08-28T20:21:37.504Z,26.53
2022-08-28T20:24:25.313Z,26.40
2022-08-28T20:27:12.323Z,26.17
2022-08-28T20:30:00.800Z,26.25
2022-08-28T20:32:58.060Z,26.23
2022-08-28T20:35:45.215Z,26.16
2022-08-28T20:38:32.503Z,26.09
2022-08-28T20:41:20.952Z,26.05
2022-08-28T20:44:10.311Z,25.97
2022-08-28T20:46:57.433Z,25.95
2022-08-28T20:49:44.422Z,25.93
2022-08-28T20:52:31.537Z,25.91
2022-08-28T20:55:18.768Z,25.89
2022-08-28T20:58:05.891Z,25.77
2022-08-28T21:00:54.022Z,25.73
2022-08-28T21:03:46.772Z,25.74
2022-08-28T21:06:34.501Z,25.71
2022-08-28T21:09:23.143Z,25.75
2022-08-28T21:12:29.412Z,25.70
2022-08-28T21:15:17.786Z,25.59
2022-08-28T21:18:05.538Z,25.43
2022-08-28T21:20:52.617Z,25.40
2022-08-28T21:23:42.944Z,25.50
2022-08-28T21:26:29.999Z,25.49
2022-08-28T21:29:22.050Z,25.68
2022-08-28T21:32:09.564Z,25.64
2022-08-28T21:34:57.406Z,25.69
2022-08-28T21:37:44.736Z,25.38
2022-08-28T21:40:31.899Z,25.27
2022-08-28T21:43:19.332Z,25.23
2022-08-28T21:46:07.089Z,25.00
2022-08-28T21:48:56.321Z,24.98
2022-08-28T21:51:43.302Z,24.92
2022-08-28T21:54:30.432Z,24.93
2022-08-28T21:57:17.856Z,24.90
2022-08-28T22:00:21.733Z,24.93
2022-08-28T22:03:08.826Z,24.89
2022-08-28T22:05:56.808Z,25.05
2022-08-28T22:08:44.580Z,25.02
2022-08-28T22:11:31.848Z,25.00
2022-08-28T22:14:18.945Z,25.10
2022-08-28T22:17:10.780Z,25.23
2022-08-28T22:19:58.876Z,25.18
2022-08-28T22:23:04.275Z,25.08
2022-08-28T22:25:51.227Z,24.90
2022-08-28T22:28:38.432Z,24.67
2022-08-28T22:31:26.115Z,24.51
2022-08-28T22:34:13.716Z,24.59
2022-08-28T22:37:00.748Z,24.72
2022-08-28T22:39:47.805Z,24.82
2022-08-28T22:42:34.912Z,25.02
2022-08-28T22:45:26.202Z,25.00
2022-08-28T22:48:14.900Z,24.84
2022-08-28T22:51:08.359Z,24.77
2022-08-28T22:53:55.803Z,24.65
2022-08-28T22:56:43.018Z,24.54
2022-08-28T22:59:29.928Z,24.56
2022-08-28T23:02:18.557Z,24.61
2022-08-28T23:05:06.400Z,24.65
2022-08-28T23:07:53.662Z,24.67
2022-08-28T23:10:58.066Z,24.76
2022-08-28T23:13:46.075Z,24.66
2022-08-28T23:16:35.101Z,24.57
2022-08-28T23:19:22.420Z,24.69
2022-08-28T23:22:09.472Z,24.61
2022-08-28T23:24:56.649Z,24.37
2022-08-28T23:27:44.714Z,24.44
2022-08-28T23:30:32.251Z,24.29
2022-08-28T23:33:24.012Z,24.15
2022-08-28T23:36:11.665Z,23.99
2022-08-28T23:38:58.716Z,24.02
2022-08-28T23:41:47.068Z,24.33
2022-08-28T23:44:34.014Z,24.21
2022-08-28T23:47:21.063Z,24.33
2022-08-28T23:50:12.484Z,24.29
2022-08-28T23:52:59.968Z,24.51
2022-08-28T23:55:48.656Z,24.21
2022-08-28T23:58:35.896Z,24.18
